createdAt,value
2023-04-10T00:02:09.280Z,98917.75
2023-04-10T00:04:36.158Z,98909.03
2023-04-10T00:07:02.946Z,98919.31
2023-04-10T00:09:31.006Z,98920.66
2023-04-10T00:11:57.807Z,98920.75
2023-04-10T00:14:24.699Z,98914.66
2023-04-10T00:16:51.455Z,98912.78
2023-04-10T00:19:18.243Z,98910.16
2023-04-10T00:21:44.976Z,98911.34
2023-04-10T00:24:11.680Z,98914.72
2023-04-10T00:26:38.362Z,98910.38
2023-04-10T00:29:05.454Z,98907.91
2023-04-10T00:31:32.481Z,98908.25
2023-04-10T00:33:59.246Z,98901.81
2023-04-10T00:36:27.120Z,98908.16
2023-04-10T00:38:54.008Z,98908.28
2023-04-10T00:41:20.709Z,98903.63
2023-04-10T00:43:47.403Z,98908.78
2023-04-10T00:46:14.142Z,98907.97
2023-04-10T00:48:41.018Z,98906.31
2023-04-10T00:51:07.812Z,98904.75
2023-04-10T00:53:34.527Z,98909.28
2023-04-10T00:56:01.964Z,98890.75
2023-04-10T00:58:28.980Z,98894.13
2023-04-10T01:00:56.439Z,98884.91
2023-04-10T01:03:24.044Z,98885.84
2023-04-10T01:05:52.328Z,98883.94
2023-04-10T01:08:28.150Z,98889.19
2023-04-10T01:11:15.977Z,98888.00
2023-04-10T01:13:55.244Z,98888.94
2023-04-10T01:16:30.792Z,98899.72
2023-04-10T01:19:08.356Z,98891.09
2023-04-10T01:21:36.725Z,98895.66
2023-04-10T01:24:21.494Z,98905.47
2023-04-10T01:27:13.718Z,98909.75
2023-04-10T01:29:44.821Z,98900.22
2023-04-10T01:32:14.342Z,98907.13
2023-04-10T01:34:44.322Z,98905.59
2023-04-10T01:37:30.511Z,98905.72
2023-04-10T01:40:07.251Z,98901.03
2023-04-10T01:42:45.640Z,98907.13
2023-04-10T01:45:17.665Z,98898.53
2023-04-10T01:47:49.456Z,98894.38
2023-04-10T01:50:17.320Z,98894.38
2023-04-10T01:52:44.642Z,98890.75
2023-04-10T01:55:18.176Z,98889.94
2023-04-10T01:57:50.978Z,98884.28
2023-04-10T02:00:19.194Z,98886.22
2023-04-10T02:02:46.227Z,98877.47
2023-04-10T02:05:16.237Z,98876.53
2023-04-10T02:07:47.108Z,98863.16
2023-04-10T02:10:37.234Z,98868.28
2023-04-10T02:13:08.026Z,98865.66
2023-04-10T02:15:35.267Z,98870.91
2023-04-10T02:18:05.087Z,98877.13
2023-04-10T02:20:32.628Z,98874.84
2023-04-10T02:23:03.742Z,98868.28
2023-04-10T02:25:34.424Z,98874.41
2023-04-10T02:28:05.439Z,98874.59
2023-04-10T02:30:33.334Z,98878.22
2023-04-10T02:33:01.066Z,98881.09
2023-04-10T02:35:30.134Z,98887.19
2023-04-10T02:37:57.240Z,98884.78
2023-04-10T02:40:24.234Z,98891.84
2023-04-10T02:42:57.241Z,98886.22
2023-04-10T02:45:23.931Z,98889.91
2023-04-10T02:47:51.299Z,98890.16
2023-04-10T02:50:19.060Z,98896.50
2023-04-10T02:52:46.609Z,98887.78
2023-04-10T02:55:13.643Z,98894.47
2023-04-10T02:57:42.850Z,98888.56
2023-04-10T03:00:10.471Z,98891.00
2023-04-10T03:03:09.676Z,98887.41
2023-04-10T03:05:49.824Z,98891.91
2023-04-10T03:08:20.278Z,98884.63
2023-04-10T03:10:50.824Z,98888.44
2023-04-10T03:13:20.608Z,98893.81
2023-04-10T03:15:47.372Z,98888.66
2023-04-10T03:18:14.186Z,98892.97
2023-04-10T03:20:45.035Z,98890.94
2023-04-10T03:23:12.005Z,98881.63
2023-04-10T03:25:38.758Z,98879.69
2023-04-10T03:28:07.215Z,98877.94
2023-04-10T03:30:36.192Z,98877.94
2023-04-10T03:33:03.432Z,98870.75
2023-04-10T03:35:30.361Z,98869.31
2023-04-10T03:37:57.498Z,98873.75
2023-04-10T03:40:24.307Z,98859.75
2023-04-10T03:42:51.143Z,98857.13
2023-04-10T03:45:18.192Z,98858.09
2023-04-10T03:47:45.261Z,98860.72
2023-04-10T03:50:14.900Z,98851.88
2023-04-10T03:52:49.895Z,98858.00
2023-04-10T03:55:19.249Z,98850.94
2023-04-10T03:57:47.375Z,98844.94
2023-04-10T04:00:17.512Z,98848.75
2023-04-10T04:02:47.153Z,98853.50
2023-04-10T04:05:21.302Z,98853.66
2023-04-10T04:08:14.168Z,98851.03
2023-04-10T04:10:58.674Z,98858.31
2023-04-10T04:13:52.881Z,98863.06
2023-04-10T04:16:38.755Z,98861.84
2023-04-10T04:19:27.318Z,98857.06
2023-04-10T04:22:08.384Z,98848.22
2023-04-10T04:24:57.858Z,98855.63
2023-04-10T04:27:44.855Z,98855.75
2023-04-10T04:30:30.448Z,98851.00
2023-04-10T04:33:26.450Z,98855.53
2023-04-10T04:35:57.158Z,98855.53
2023-04-10T04:38:59.214Z,98856.13
2023-04-10T04:41:49.249Z,98850.16
2023-04-10T04:44:37.480Z,98853.25
2023-04-10T04:47:15.899Z,98842.66
2023-04-10T04:49:55.369Z,98843.00
2023-04-10T04:52:22.087Z,98844.56
2023-04-10T04:55:04.653Z,98843.50
2023-04-10T04:57:37.109Z,98841.59
2023-04-10T05:00:11.161Z,98844.72
2023-04-10T05:02:58.274Z,98839.22
2023-04-10T05:05:43.188Z,98841.75
2023-04-10T05:08:27.910Z,98847.81
2023-04-10T05:11:02.902Z,98843.28
2023-04-10T05:13:41.718Z,98848.66
2023-04-10T05:16:23.504Z,98847.72
2023-04-10T05:19:13.302Z,98847.25
2023-04-10T05:22:00.495Z,98844.38
2023-04-10T05:24:55.230Z,98843.19
2023-04-10T05:27:36.605Z,98844.50
2023-04-10T05:30:21.954Z,98845.94
2023-04-10T05:33:07.289Z,98849.91
2023-04-10T05:35:46.493Z,98856.34
2023-04-10T05:38:32.909Z,98844.50
2023-04-10T05:41:11.182Z,98839.59
2023-04-10T05:43:56.719Z,98836.38
2023-04-10T05:46:46.703Z,98840.06
2023-04-10T05:49:33.706Z,98840.28
2023-04-10T05:52:14.097Z,98839.91
2023-04-10T05:54:59.477Z,98845.53
2023-04-10T05:57:39.385Z,98845.97
2023-04-10T06:00:24.799Z,98847.03
2023-04-10T06:03:24.228Z,98843.50
2023-04-10T06:05:56.693Z,98842.88
2023-04-10T06:08:23.456Z,98850.41
2023-04-10T06:10:50.176Z,98845.72
2023-04-10T06:13:16.952Z,98846.06
2023-04-10T06:15:43.754Z,98848.91
2023-04-10T06:18:10.674Z,98840.22
2023-04-10T06:20:37.603Z,98838.19
2023-04-10T06:23:04.257Z,98835.56
2023-04-10T06:25:30.982Z,98840.41
2023-04-10T06:28:02.353Z,98843.47
2023-04-10T06:30:30.725Z,98831.94
2023-04-10T06:32:57.852Z,98844.03
2023-04-10T06:35:24.744Z,98836.00
2023-04-10T06:37:51.499Z,98844.22
2023-04-10T06:40:18.285Z,98841.72
2023-04-10T06:42:45.048Z,98852.00
2023-04-10T06:45:27.366Z,98844.59
2023-04-10T06:47:54.351Z,98842.16
2023-04-10T06:50:21.205Z,98838.63
2023-04-10T06:52:48.182Z,98842.41
2023-04-10T06:55:14.947Z,98844.88
2023-04-10T06:57:42.209Z,98837.78
2023-04-10T07:00:09.667Z,98833.94
2023-04-10T07:02:36.427Z,98838.66
2023-04-10T07:05:03.305Z,98835.94
2023-04-10T07:07:30.122Z,98835.03
2023-04-10T07:09:58.136Z,98831.59
2023-04-10T07:12:24.908Z,98831.63
2023-04-10T07:14:52.001Z,98832.50
2023-04-10T07:17:18.740Z,98834.63
2023-04-10T07:19:45.436Z,98830.03
2023-04-10T07:22:12.817Z,98833.81
2023-04-10T07:24:39.513Z,98829.53
2023-04-10T07:27:06.274Z,98827.28
2023-04-10T07:29:33.019Z,98826.16
2023-04-10T07:32:00.155Z,98831.56
2023-04-10T07:34:27.073Z,98822.50
2023-04-10T07:36:54.103Z,98822.91
2023-04-10T07:39:20.811Z,98829.00
2023-04-10T07:41:47.525Z,98830.72
2023-04-10T07:44:14.781Z,98825.84
2023-04-10T07:46:41.964Z,98820.13
2023-04-10T07:49:09.080Z,98826.63
2023-04-10T07:51:36.278Z,98820.16
2023-04-10T07:54:04.192Z,98822.91
2023-04-10T07:56:33.506Z,98818.25
2023-04-10T07:59:01.382Z,98813.72
2023-04-10T08:01:29.068Z,98818.66
2023-04-10T08:03:56.752Z,98815.91
2023-04-10T08:06:23.768Z,98805.63
2023-04-10T08:08:52.546Z,98807.59
2023-04-10T08:11:27.993Z,98804.41
2023-04-10T08:14:02.077Z,98802.63
2023-04-10T08:16:30.266Z,98805.69
2023-04-10T08:18:57.917Z,98811.41
2023-04-10T08:21:26.788Z,98803.31
2023-04-10T08:23:54.440Z,98809.31
2023-04-10T08:26:21.619Z,98807.34
2023-04-10T08:28:50.816Z,98806.66
2023-04-10T08:31:18.426Z,98807.50
2023-04-10T08:33:45.200Z,98805.50
2023-04-10T08:36:13.072Z,98794.03
2023-04-10T08:38:40.077Z,98791.19
2023-04-10T08:41:06.930Z,98794.03
2023-04-10T08:43:35.338Z,98794.69
2023-04-10T08:46:02.605Z,98790.06
2023-04-10T08:48:35.223Z,98791.34
2023-04-10T08:51:04.944Z,98787.00
2023-04-10T08:53:34.024Z,98787.16
2023-04-10T08:56:03.100Z,98790.28
2023-04-10T08:58:29.978Z,98784.28
2023-04-10T09:00:56.868Z,98783.31
2023-04-10T09:03:24.227Z,98776.00
2023-04-10T09:05:51.038Z,98779.66
2023-04-10T09:08:17.774Z,98783.97
2023-04-10T09:10:44.477Z,98765.28
2023-04-10T09:13:11.279Z,98769.47
2023-04-10T09:15:57.013Z,98767.91
2023-04-10T09:18:40.690Z,98769.38
2023-04-10T09:21:11.544Z,98764.72
2023-04-10T09:23:38.446Z,98766.25
2023-04-10T09:26:24.621Z,98772.28
2023-04-10T09:29:02.718Z,98757.31
2023-04-10T09:31:37.050Z,98770.34
2023-04-10T09:34:07.596Z,98759.25
2023-04-10T09:36:34.418Z,98751.66
2023-04-10T09:39:01.799Z,98748.50
2023-04-10T09:41:28.811Z,98740.06
2023-04-10T09:44:16.766Z,98739.03
2023-04-10T09:46:44.361Z,98733.44
2023-04-10T09:49:11.381Z,98720.03
2023-04-10T09:51:39.651Z,98716.56
2023-04-10T09:54:06.985Z,98713.59
2023-04-10T09:56:37.225Z,98712.66
2023-04-10T09:59:04.979Z,98710.38
2023-04-10T10:01:35.252Z,98704.50
2023-04-10T10:04:05.509Z,98695.94
2023-04-10T10:06:33.074Z,98691.63
2023-04-10T10:09:04.377Z,98683.00
2023-04-10T10:11:34.332Z,98690.00
2023-04-10T10:14:04.129Z,98676.91
2023-04-10T10:16:43.789Z,98679.47
2023-04-10T10:19:24.755Z,98673.03
2023-04-10T10:21:52.654Z,98666.28
2023-04-10T10:24:21.261Z,98669.94
2023-04-10T10:26:48.174Z,98673.50
2023-04-10T10:29:17.568Z,98660.69
2023-04-10T10:31:44.793Z,98655.31
2023-04-10T10:34:11.702Z,98647.13
2023-04-10T10:36:41.502Z,98644.78
2023-04-10T10:40:02.438Z,98638.31
2023-04-10T10:42:40.555Z,98631.94
2023-04-10T10:45:11.742Z,98623.28
2023-04-10T10:47:51.054Z,98635.47
2023-04-10T10:50:17.928Z,98623.06
2023-04-10T10:52:56.312Z,98617.06
2023-04-10T10:55:25.965Z,98616.16
2023-04-10T10:57:56.167Z,98617.19
2023-04-10T11:00:24.655Z,98615.09
2023-04-10T11:03:10.965Z,98601.53
2023-04-10T11:06:07.459Z,98599.75
2023-04-10T11:08:35.318Z,98608.59
2023-04-10T11:11:03.067Z,98611.47
2023-04-10T11:13:31.175Z,98604.50
2023-04-10T11:15:58.683Z,98605.31
2023-04-10T11:18:55.989Z,98598.50
2023-04-10T11:21:29.575Z,98595.16
2023-04-10T11:23:56.326Z,98589.19
2023-04-10T11:26:35.395Z,98581.66
2023-04-10T11:29:02.785Z,98580.25
2023-04-10T11:31:29.638Z,98573.97
2023-04-10T11:33:56.749Z,98571.28
2023-04-10T11:36:23.826Z,98583.16
2023-04-10T11:38:57.424Z,98573.88
2023-04-10T11:41:28.923Z,98574.75
2023-04-10T11:43:55.722Z,98575.47
2023-04-10T11:46:22.775Z,98570.38
2023-04-10T11:48:53.818Z,98570.19
2023-04-10T11:51:20.869Z,98562.56
2023-04-10T11:53:51.233Z,98570.06
2023-04-10T11:56:22.164Z,98560.38
2023-04-10T11:58:55.396Z,98561.19
2023-04-10T12:01:22.822Z,98558.22
2023-04-10T12:03:50.130Z,98551.41
2023-04-10T12:06:19.566Z,98542.03
2023-04-10T12:08:49.651Z,98525.69
2023-04-10T12:11:18.067Z,98524.97
2023-04-10T12:13:45.154Z,98513.34
2023-04-10T12:16:12.559Z,98502.69
2023-04-10T12:18:39.490Z,98505.34
2023-04-10T12:21:08.370Z,98505.16
2023-04-10T12:23:38.383Z,98500.84
2023-04-10T12:26:16.404Z,98496.00
2023-04-10T12:28:52.523Z,98494.84
2023-04-10T12:31:28.205Z,98497.13
2023-04-10T12:33:58.188Z,98489.38
2023-04-10T12:36:29.414Z,98487.31
2023-04-10T12:39:01.347Z,98482.31
2023-04-10T12:41:33.504Z,98486.84
2023-04-10T12:44:11.462Z,98484.88
2023-04-10T12:46:38.331Z,98473.13
2023-04-10T12:49:11.756Z,98482.25
2023-04-10T12:51:52.107Z,98478.69
2023-04-10T12:54:32.167Z,98465.22
2023-04-10T12:56:59.080Z,98464.09
2023-04-10T12:59:26.759Z,98462.06
2023-04-10T13:01:54.175Z,98461.19
2023-04-10T13:04:21.193Z,98454.97
2023-04-10T13:06:48.750Z,98455.88
2023-04-10T13:09:16.027Z,98464.75
2023-04-10T13:11:43.394Z,98458.88
2023-04-10T13:14:13.983Z,98447.25
2023-04-10T13:16:40.846Z,98449.09
2023-04-10T13:19:07.893Z,98449.31
2023-04-10T13:21:34.657Z,98453.44
2023-04-10T13:24:01.361Z,98447.94
2023-04-10T13:26:28.197Z,98450.47
2023-04-10T13:28:57.494Z,98441.09
2023-04-10T13:31:24.293Z,98439.38
2023-04-10T13:33:51.041Z,98439.28
2023-04-10T13:36:17.787Z,98442.03
2023-04-10T13:38:44.542Z,98441.22
2023-04-10T13:41:11.240Z,98435.72
2023-04-10T13:43:38.012Z,98427.16
2023-04-10T13:46:05.622Z,98424.75
2023-04-10T13:48:40.028Z,98436.84
2023-04-10T13:51:10.502Z,98427.41
2023-04-10T13:53:37.206Z,98416.28
2023-04-10T13:56:04.092Z,98409.53
2023-04-10T13:58:32.240Z,98403.63
2023-04-10T14:00:59.156Z,98409.22
2023-04-10T14:03:26.095Z,98398.44
2023-04-10T14:05:53.170Z,98394.63
2023-04-10T14:08:20.308Z,98394.47
2023-04-10T14:10:50.962Z,98391.88
2023-04-10T14:13:18.382Z,98396.72
2023-04-10T14:15:45.325Z,98391.78
2023-04-10T14:18:12.246Z,98393.72
2023-04-10T14:20:39.357Z,98387.59
2023-04-10T14:23:06.060Z,98382.03
2023-04-10T14:25:32.756Z,98377.03
2023-04-10T14:28:00.019Z,98371.78
2023-04-10T14:30:31.115Z,98369.31
2023-04-10T14:32:58.080Z,98364.84
2023-04-10T14:35:24.962Z,98359.75
2023-04-10T14:37:51.691Z,98354.53
2023-04-10T14:40:18.409Z,98356.22
2023-04-10T14:42:46.074Z,98348.25
2023-04-10T14:45:12.779Z,98346.47
2023-04-10T14:47:42.244Z,98350.66
2023-04-10T14:50:09.228Z,98343.78
2023-04-10T14:52:35.898Z,98344.59
2023-04-10T14:55:02.691Z,98339.16
2023-04-10T14:57:31.966Z,98352.50
2023-04-10T15:00:01.426Z,98342.28
2023-04-10T15:02:28.668Z,98335.50
2023-04-10T15:04:55.592Z,98344.34
2023-04-10T15:07:22.708Z,98333.72
2023-04-10T15:09:49.764Z,98321.47
2023-04-10T15:12:16.824Z,98320.31
2023-04-10T15:14:43.551Z,98315.66
2023-04-10T15:17:10.404Z,98312.72
2023-04-10T15:19:37.145Z,98300.69
2023-04-10T15:22:03.865Z,98308.47
2023-04-10T15:24:32.510Z,98304.03
2023-04-10T15:27:03.787Z,98302.81
2023-04-10T15:29:30.734Z,98298.09
2023-04-10T15:31:59.977Z,98296.22
2023-04-10T15:34:26.675Z,98291.50
2023-04-10T15:36:53.404Z,98289.66
2023-04-10T15:39:20.085Z,98284.03
2023-04-10T15:41:50.174Z,98283.63
2023-04-10T15:44:17.064Z,98276.16
2023-04-10T15:46:44.146Z,98273.53
2023-04-10T15:49:10.916Z,98271.28
2023-04-10T15:51:37.613Z,98261.59
2023-04-10T15:54:05.124Z,98255.19
2023-04-10T15:56:33.077Z,98253.59
2023-04-10T15:59:00.149Z,98263.97
2023-04-10T16:01:26.875Z,98257.22
2023-04-10T16:03:54.118Z,98254.78
2023-04-10T16:06:21.203Z,98256.78
2023-04-10T16:08:47.915Z,98242.34
2023-04-10T16:11:14.623Z,98242.09
2023-04-10T16:13:44.395Z,98243.09
2023-04-10T16:16:15.978Z,98243.09
2023-04-10T16:18:44.973Z,98237.56
2023-04-10T16:21:13.456Z,98231.63
2023-04-10T16:23:40.133Z,98234.50
2023-04-10T16:26:06.876Z,98233.91
2023-04-10T16:28:33.634Z,98241.50
2023-04-10T16:31:00.450Z,98236.56
2023-04-10T16:33:27.748Z,98236.63
2023-04-10T16:35:54.534Z,98229.03
2023-04-10T16:38:21.269Z,98217.50
2023-04-10T16:40:47.971Z,98217.25
2023-04-10T16:43:14.714Z,98216.63
2023-04-10T16:45:41.469Z,98199.13
2023-04-10T16:48:08.154Z,98186.59
2023-04-10T16:50:36.665Z,98184.94
2023-04-10T16:53:03.391Z,98178.31
2023-04-10T16:55:30.144Z,98170.09
2023-04-10T16:57:56.985Z,98161.09
2023-04-10T17:00:23.704Z,98167.94
2023-04-10T17:02:50.519Z,98170.00
2023-04-10T17:05:17.707Z,98168.16
2023-04-10T17:07:45.225Z,98165.50
2023-04-10T17:10:12.181Z,98173.75
2023-04-10T17:12:39.214Z,98165.50
2023-04-10T17:15:10.084Z,98176.63
2023-04-10T17:17:37.060Z,98165.53
2023-04-10T17:20:04.583Z,98170.84
2023-04-10T17:22:31.301Z,98163.03
2023-04-10T17:24:58.111Z,98163.66
2023-04-10T17:27:24.820Z,98163.84
2023-04-10T17:29:51.509Z,98159.94
2023-04-10T17:32:18.207Z,98162.63
2023-04-10T17:34:44.976Z,98162.81
2023-04-10T17:37:11.695Z,98167.53
2023-04-10T17:39:38.489Z,98164.66
2023-04-10T17:42:05.229Z,98158.47
2023-04-10T17:44:32.397Z,98161.75
2023-04-10T17:46:59.112Z,98162.78
2023-04-10T17:49:26.089Z,98153.50
2023-04-10T17:51:53.005Z,98150.63
2023-04-10T17:54:19.788Z,98147.91
2023-04-10T17:56:46.459Z,98145.03
2023-04-10T17:59:13.208Z,98142.94
2023-04-10T18:01:40.269Z,98129.34
2023-04-10T18:04:07.314Z,98137.56
2023-04-10T18:06:34.139Z,98132.84
2023-04-10T18:09:00.959Z,98137.94
2023-04-10T18:11:28.659Z,98129.31
2023-04-10T18:13:55.423Z,98124.38
2023-04-10T18:16:22.166Z,98112.06
2023-04-10T18:18:48.871Z,98107.72
2023-04-10T18:21:15.569Z,98103.81
2023-04-10T18:23:42.442Z,98089.84
2023-04-10T18:26:09.194Z,98093.13
2023-04-10T18:28:36.616Z,98084.88
2023-04-10T18:31:03.660Z,98081.78
2023-04-10T18:33:30.826Z,98087.72
2023-04-10T18:35:58.877Z,98102.28
2023-04-10T18:38:26.363Z,98117.03
2023-04-10T18:40:57.372Z,98122.72
2023-04-10T18:43:27.768Z,98123.31
2023-04-10T18:45:54.978Z,98123.03
2023-04-10T18:48:22.159Z,98130.47
2023-04-10T18:50:52.257Z,98139.19
2023-04-10T18:53:19.499Z,98132.41
2023-04-10T18:55:52.956Z,98143.47
2023-04-10T18:58:23.108Z,98148.19
2023-04-10T19:00:50.235Z,98155.53
2023-04-10T19:03:17.245Z,98146.13
2023-04-10T19:05:44.636Z,98150.13
2023-04-10T19:08:14.718Z,98156.56
2023-04-10T19:10:42.750Z,98154.13
2023-04-10T19:13:11.874Z,98155.03
2023-04-10T19:15:40.665Z,98160.81
2023-04-10T19:18:07.569Z,98162.41
2023-04-10T19:20:48.995Z,98173.97
2023-04-10T19:23:18.098Z,98160.03
2023-04-10T19:25:45.002Z,98146.25
2023-04-10T19:28:12.319Z,98141.25
2023-04-10T19:30:39.094Z,98143.53
2023-04-10T19:33:06.053Z,98150.06
2023-04-10T19:35:32.858Z,98155.56
2023-04-10T19:37:59.560Z,98170.31
2023-04-10T19:40:26.467Z,98165.34
2023-04-10T19:42:53.305Z,98175.41
2023-04-10T19:45:21.427Z,98186.41
2023-04-10T19:47:50.844Z,98179.38
2023-04-10T19:50:17.566Z,98184.34
2023-04-10T19:52:44.335Z,98175.06
2023-04-10T19:55:11.092Z,98176.50
2023-04-10T19:57:37.807Z,98173.22
2023-04-10T20:00:06.074Z,98163.44
2023-04-10T20:02:39.061Z,98153.34
2023-04-10T20:05:06.538Z,98153.59
2023-04-10T20:07:33.309Z,98158.13
2023-04-10T20:10:03.454Z,98169.16
2023-04-10T20:12:33.317Z,98169.16
2023-04-10T20:15:00.868Z,98158.50
2023-04-10T20:17:28.789Z,98163.56
2023-04-10T20:19:55.590Z,98153.31
2023-04-10T20:22:22.298Z,98134.56
2023-04-10T20:24:49.020Z,98134.69
2023-04-10T20:27:15.805Z,98122.47
2023-04-10T20:29:42.561Z,98128.44
2023-04-10T20:32:09.802Z,98127.41
2023-04-10T20:34:37.018Z,98131.59
2023-04-10T20:37:06.374Z,98133.72
2023-04-10T20:39:33.564Z,98135.91
2023-04-10T20:42:00.313Z,98127.28
2023-04-10T20:44:27.109Z,98121.34
2023-04-10T20:46:55.076Z,98123.72
2023-04-10T20:49:22.836Z,98129.44
2023-04-10T20:51:49.610Z,98126.88
2023-04-10T20:54:19.101Z,98126.88
2023-04-10T20:56:46.792Z,98121.91
2023-04-10T20:59:13.603Z,98110.28
2023-04-10T21:01:40.541Z,98115.22
2023-04-10T21:04:07.473Z,98115.00
2023-04-10T21:06:34.289Z,98112.56
2023-04-10T21:09:01.001Z,98106.59
2023-04-10T21:11:27.814Z,98099.16
2023-04-10T21:13:54.666Z,98097.31
2023-04-10T21:16:21.607Z,98092.75
2023-04-10T21:18:48.360Z,98089.09
2023-04-10T21:21:15.634Z,98088.06
2023-04-10T21:23:42.514Z,98087.44
2023-04-10T21:26:09.234Z,98083.41
2023-04-10T21:28:36.201Z,98081.13
2023-04-10T21:31:03.117Z,98084.13
2023-04-10T21:33:29.860Z,98077.00
2023-04-10T21:35:56.995Z,98061.28
2023-04-10T21:38:24.194Z,98075.06
2023-04-10T21:40:51.940Z,98103.41
2023-04-10T21:43:19.418Z,98110.75
2023-04-10T21:45:46.744Z,98099.09
2023-04-10T21:48:13.629Z,98096.81
2023-04-10T21:50:40.672Z,98095.69
2023-04-10T21:53:07.386Z,98089.16
2023-04-10T21:55:34.118Z,98094.47
2023-04-10T21:58:00.856Z,98099.38
2023-04-10T22:00:28.946Z,98093.13
2023-04-10T22:02:56.029Z,98081.28
2023-04-10T22:05:24.556Z,98072.47
2023-04-10T22:07:52.253Z,98053.28
2023-04-10T22:10:19.106Z,98063.09
2023-04-10T22:12:48.534Z,98055.63
2023-04-10T22:15:16.188Z,98039.63
2023-04-10T22:17:43.100Z,98032.03
2023-04-10T22:20:10.628Z,98021.38
2023-04-10T22:22:40.153Z,98024.47
2023-04-10T22:25:07.167Z,98013.47
2023-04-10T22:27:33.907Z,98008.97
2023-04-10T22:30:03.713Z,98005.66
2023-04-10T22:32:31.841Z,97997.44
2023-04-10T22:34:59.725Z,97992.75
2023-04-10T22:37:27.119Z,97978.34
2023-04-10T22:39:56.360Z,97983.88
2023-04-10T22:42:23.490Z,97963.59
2023-04-10T22:44:50.749Z,97945.38
2023-04-10T22:47:17.500Z,97938.81
2023-04-10T22:49:45.910Z,97939.63
2023-04-10T22:52:16.375Z,97942.16
2023-04-10T22:54:43.112Z,97923.31
2023-04-10T22:57:09.793Z,97929.84
2023-04-10T22:59:37.135Z,97933.50
2023-04-10T23:02:04.164Z,97928.34
2023-04-10T23:04:31.383Z,97919.94
2023-04-10T23:06:58.149Z,97906.66
2023-04-10T23:09:25.062Z,97904.00
2023-04-10T23:11:51.758Z,97907.09
2023-04-10T23:14:18.461Z,97931.28
2023-04-10T23:16:49.640Z,97950.31
2023-04-10T23:19:17.508Z,97962.97
2023-04-10T23:21:44.240Z,97955.34
2023-04-10T23:24:10.949Z,97947.38
2023-04-10T23:26:37.621Z,97940.19
2023-04-10T23:29:04.364Z,97935.06
2023-04-10T23:31:31.113Z,97942.88
2023-04-10T23:33:57.959Z,97933.25
2023-04-10T23:36:24.643Z,97941.47
2023-04-10T23:38:51.486Z,97937.78
2023-04-10T23:41:18.320Z,97937.78
2023-04-10T23:43:45.060Z,97927.31
2023-04-10T23:46:11.825Z,97922.63
2023-04-10T23:48:38.572Z,97930.22
2023-04-10T23:51:06.251Z,97927.94
2023-04-10T23:53:33.923Z,97918.34
2023-04-10T23:56:01.350Z,97905.63
2023-04-10T23:58:29.050Z,97914.00
